createdAt,value
2023-06-14T00:00:29.239Z,1.88
2023-06-14T00:02:57.691Z,1.80
2023-06-14T00:05:25.762Z,1.92
2023-06-14T00:07:54.560Z,2.00
2023-06-14T00:10:23.827Z,2.00
2023-06-14T00:12:51.614Z,2.00
2023-06-14T00:15:19.535Z,2.30
2023-06-14T00:17:48.642Z,1.95
2023-06-14T00:20:27.052Z,1.85
2023-06-14T00:22:59.363Z,2.05
2023-06-14T00:25:30.225Z,1.67
2023-06-14T00:28:01.620Z,2.00
2023-06-14T00:30:32.266Z,1.90
2023-06-14T00:33:01.023Z,2.00
2023-06-14T00:35:29.120Z,2.15
2023-06-14T00:38:00.794Z,2.10
2023-06-14T00:40:30.697Z,1.98
2023-06-14T00:43:00.828Z,2.20
2023-06-14T00:45:32.428Z,1.77
2023-06-14T00:48:00.994Z,2.30
2023-06-14T00:50:34.234Z,2.10
2023-06-14T00:53:03.148Z,2.40
2023-06-14T00:55:33.892Z,2.05
2023-06-14T00:58:02.321Z,1.80
2023-06-14T01:00:30.878Z,2.17
2023-06-14T01:03:01.176Z,2.50
2023-06-14T01:05:32.927Z,2.13
2023-06-14T01:08:20.210Z,2.00
2023-06-14T01:10:59.169Z,2.08
2023-06-14T01:13:33.680Z,2.13
2023-06-14T01:16:01.600Z,2.30
2023-06-14T01:18:31.018Z,2.40
2023-06-14T01:21:01.073Z,2.03
2023-06-14T01:23:34.045Z,2.00
2023-06-14T01:26:04.583Z,2.13
2023-06-14T01:28:38.203Z,2.05
2023-06-14T01:31:07.574Z,2.30
2023-06-14T01:33:37.435Z,2.05
2023-06-14T01:36:11.566Z,2.58
2023-06-14T01:38:49.500Z,2.53
2023-06-14T01:41:23.504Z,2.60
2023-06-14T01:43:53.488Z,2.50
2023-06-14T01:46:22.450Z,2.17
2023-06-14T01:48:50.931Z,2.47
2023-06-14T01:51:18.879Z,2.30
2023-06-14T01:53:48.392Z,2.30
2023-06-14T01:56:16.485Z,2.38
2023-06-14T01:58:44.785Z,2.35
2023-06-14T02:01:13.902Z,2.20
2023-06-14T02:03:41.856Z,2.67
2023-06-14T02:06:11.536Z,2.47
2023-06-14T02:08:41.681Z,2.33
2023-06-14T02:11:11.631Z,1.92
2023-06-14T02:13:40.478Z,2.80
2023-06-14T02:16:08.999Z,2.75
2023-06-14T02:18:40.097Z,2.42
2023-06-14T02:21:10.662Z,2.60
2023-06-14T02:23:38.765Z,2.50
2023-06-14T02:26:09.305Z,2.47
2023-06-14T02:28:40.978Z,2.00
2023-06-14T02:31:10.646Z,2.25
2023-06-14T02:33:39.120Z,2.67
2023-06-14T02:36:09.457Z,2.55
2023-06-14T02:38:43.199Z,2.30
2023-06-14T02:41:12.591Z,2.63
2023-06-14T02:43:42.123Z,2.47
2023-06-14T02:46:10.455Z,2.47
2023-06-14T02:48:41.388Z,2.20
2023-06-14T02:51:10.991Z,2.27
2023-06-14T02:53:43.267Z,2.30
2023-06-14T02:56:11.211Z,2.80
2023-06-14T02:58:40.528Z,2.10
2023-06-14T03:01:20.760Z,2.67
2023-06-14T03:03:51.236Z,2.17
2023-06-14T03:06:28.402Z,2.20
2023-06-14T03:09:01.654Z,2.43
2023-06-14T03:11:30.748Z,2.47
2023-06-14T03:14:00.215Z,2.27
2023-06-14T03:16:31.096Z,2.40
2023-06-14T03:19:02.164Z,2.50
2023-06-14T03:21:31.164Z,2.57
2023-06-14T03:24:00.896Z,2.30
2023-06-14T03:26:31.624Z,2.27
2023-06-14T03:29:00.971Z,2.50
2023-06-14T03:31:34.037Z,2.50
2023-06-14T03:34:02.327Z,2.63
2023-06-14T03:36:31.041Z,2.30
2023-06-14T03:38:58.996Z,2.30
2023-06-14T03:41:30.019Z,2.30
2023-06-14T03:44:00.957Z,2.50
2023-06-14T03:46:31.504Z,2.37
2023-06-14T03:48:59.439Z,2.13
2023-06-14T03:51:31.459Z,2.30
2023-06-14T03:54:30.227Z,2.40
2023-06-14T03:56:48.879Z,2.50
2023-06-14T03:59:16.846Z,2.53
2023-06-14T04:01:49.327Z,2.53
2023-06-14T04:04:19.875Z,2.50
2023-06-14T04:06:51.247Z,2.10
2023-06-14T04:09:20.210Z,2.20
2023-06-14T04:11:52.728Z,2.50
2023-06-14T04:14:21.354Z,2.47
2023-06-14T04:16:52.277Z,2.20
2023-06-14T04:19:20.735Z,1.97
2023-06-14T04:21:48.717Z,2.37
2023-06-14T04:24:16.562Z,2.30
2023-06-14T04:26:47.594Z,2.07
2023-06-14T04:29:17.627Z,2.47
2023-06-14T04:31:46.112Z,2.40
2023-06-14T04:34:17.747Z,2.10
2023-06-14T04:36:50.453Z,2.63
2023-06-14T04:39:22.530Z,2.40
2023-06-14T04:41:56.752Z,2.10
2023-06-14T04:44:31.149Z,2.30
2023-06-14T04:47:00.602Z,2.00
2023-06-14T04:49:33.955Z,2.43
2023-06-14T04:52:10.012Z,2.37
2023-06-14T04:54:41.363Z,2.43
2023-06-14T04:57:15.130Z,2.27
2023-06-14T04:59:50.840Z,2.57
2023-06-14T05:02:18.783Z,2.20
2023-06-14T05:04:58.408Z,2.53
2023-06-14T05:07:31.354Z,2.23
2023-06-14T05:10:06.237Z,2.40
2023-06-14T05:12:35.344Z,2.17
2023-06-14T05:15:03.337Z,2.17
2023-06-14T05:17:31.327Z,2.40
2023-06-14T05:20:02.362Z,2.20
2023-06-14T05:22:31.540Z,2.30
2023-06-14T05:25:01.508Z,2.60
2023-06-14T05:27:30.557Z,2.30
2023-06-14T05:30:01.706Z,2.00
2023-06-14T05:32:32.065Z,2.40
2023-06-14T05:35:03.076Z,2.40
2023-06-14T05:37:32.049Z,1.90
2023-06-14T05:40:01.621Z,2.17
2023-06-14T05:42:31.305Z,2.27
2023-06-14T05:44:59.287Z,2.40
2023-06-14T05:47:28.837Z,2.20
2023-06-14T05:50:13.782Z,2.57
2023-06-14T05:52:41.795Z,2.30
2023-06-14T05:55:13.799Z,2.03
2023-06-14T05:57:44.446Z,2.40
2023-06-14T06:00:15.742Z,2.30
2023-06-14T06:02:47.384Z,2.13
2023-06-14T06:05:21.603Z,2.00
2023-06-14T06:07:52.533Z,1.97
2023-06-14T06:10:20.610Z,2.30
2023-06-14T06:12:49.575Z,2.60
2023-06-14T06:15:20.414Z,2.30
2023-06-14T06:17:56.471Z,2.10
2023-06-14T06:20:32.790Z,2.40
2023-06-14T06:23:02.075Z,2.27
2023-06-14T06:25:33.040Z,1.87
2023-06-14T06:28:01.005Z,2.37
2023-06-14T06:30:31.344Z,2.30
2023-06-14T06:33:01.925Z,1.93
2023-06-14T06:35:31.768Z,2.00
2023-06-14T06:38:02.837Z,1.97
2023-06-14T06:40:31.608Z,2.30
2023-06-14T06:43:01.898Z,2.00
2023-06-14T06:45:31.825Z,1.77
2023-06-14T06:48:01.171Z,2.50
2023-06-14T06:50:34.074Z,1.93
2023-06-14T06:53:02.067Z,2.00
2023-06-14T06:55:30.793Z,2.10
2023-06-14T06:58:01.395Z,2.40
2023-06-14T07:00:29.550Z,2.30
2023-06-14T07:03:02.518Z,2.10
2023-06-14T07:05:31.317Z,1.83
2023-06-14T07:08:02.636Z,2.43
2023-06-14T07:10:30.493Z,1.90
2023-06-14T07:12:58.280Z,2.07
2023-06-14T07:15:29.840Z,2.30
2023-06-14T07:18:01.777Z,2.50
2023-06-14T07:20:34.202Z,2.27
2023-06-14T07:23:03.595Z,2.20
2023-06-14T07:25:31.972Z,2.33
2023-06-14T07:28:01.857Z,2.10
2023-06-14T07:30:31.185Z,1.93
2023-06-14T07:32:59.235Z,2.33
2023-06-14T07:35:27.234Z,2.07
2023-06-14T07:37:55.298Z,1.97
2023-06-14T07:40:24.631Z,1.77
2023-06-14T07:42:52.530Z,2.20
2023-06-14T07:45:20.797Z,2.10
2023-06-14T07:47:48.654Z,2.30
2023-06-14T07:50:19.891Z,2.07
2023-06-14T07:52:47.957Z,2.43
2023-06-14T07:55:23.476Z,2.22
2023-06-14T07:57:54.685Z,2.03
2023-06-14T08:00:23.113Z,1.90
2023-06-14T08:02:52.797Z,2.63
2023-06-14T08:05:24.073Z,2.15
2023-06-14T08:07:52.093Z,2.30
2023-06-14T08:10:21.117Z,2.45
2023-06-14T08:12:49.555Z,2.33
2023-06-14T08:15:23.387Z,2.50
2023-06-14T08:17:53.962Z,2.50
2023-06-14T08:20:22.305Z,2.50
2023-06-14T08:22:50.779Z,2.50
2023-06-14T08:25:33.476Z,2.15
2023-06-14T08:28:01.966Z,2.10
2023-06-14T08:30:33.882Z,2.45
2023-06-14T08:33:14.700Z,2.80
2023-06-14T08:35:44.651Z,2.38
2023-06-14T08:38:13.410Z,2.42
2023-06-14T08:40:44.605Z,2.55
2023-06-14T08:43:12.667Z,2.78
2023-06-14T08:45:43.749Z,2.72
2023-06-14T08:48:12.925Z,2.42
2023-06-14T08:50:44.056Z,2.40
2023-06-14T08:53:21.013Z,2.20
2023-06-14T08:55:49.846Z,2.72
2023-06-14T08:58:20.377Z,2.30
2023-06-14T09:00:53.748Z,2.00
2023-06-14T09:03:24.308Z,2.53
2023-06-14T09:05:55.502Z,2.13
2023-06-14T09:08:24.840Z,3.00
2023-06-14T09:10:53.330Z,2.20
2023-06-14T09:13:21.418Z,2.30
2023-06-14T09:15:53.538Z,2.40
2023-06-14T09:18:22.447Z,2.42
2023-06-14T09:21:04.546Z,2.30
2023-06-14T09:23:40.828Z,2.10
2023-06-14T09:26:10.910Z,2.40
2023-06-14T09:28:45.094Z,1.63
2023-06-14T09:31:16.219Z,2.25
2023-06-14T09:33:50.752Z,2.10
2023-06-14T09:36:20.614Z,2.38
2023-06-14T09:39:01.819Z,2.17
2023-06-14T09:41:34.240Z,2.28
2023-06-14T09:44:07.432Z,2.13
2023-06-14T09:46:49.682Z,2.20
2023-06-14T09:49:18.621Z,2.13
2023-06-14T09:51:52.943Z,2.05
2023-06-14T09:54:31.063Z,2.15
2023-06-14T09:57:04.989Z,2.22
2023-06-14T09:59:40.346Z,2.05
2023-06-14T10:02:21.857Z,2.15
2023-06-14T10:05:02.061Z,1.80
2023-06-14T10:07:34.384Z,2.15
2023-06-14T10:10:03.193Z,1.90
2023-06-14T10:12:32.627Z,1.90
2023-06-14T10:15:04.036Z,2.10
2023-06-14T10:17:42.194Z,1.88
2023-06-14T10:20:34.774Z,1.80
2023-06-14T10:23:10.010Z,1.65
2023-06-14T10:25:39.697Z,1.58
2023-06-14T10:28:27.807Z,1.52
2023-06-14T10:31:06.907Z,1.63
2023-06-14T10:33:37.160Z,1.67
2023-06-14T10:36:34.083Z,1.50
2023-06-14T10:39:06.473Z,1.45
2023-06-14T10:41:43.186Z,1.40
2023-06-14T10:44:41.816Z,1.23
2023-06-14T10:47:25.892Z,1.73
2023-06-14T10:49:59.824Z,1.55
2023-06-14T10:52:31.249Z,1.58
2023-06-14T10:55:07.925Z,1.70
2023-06-14T10:57:50.857Z,1.38
2023-06-14T11:00:26.087Z,1.88
2023-06-14T11:03:25.524Z,1.40
2023-06-14T11:06:00.936Z,1.60
2023-06-14T11:09:06.438Z,1.23
2023-06-14T11:11:38.480Z,1.20
2023-06-14T11:14:06.839Z,1.42
2023-06-14T11:16:36.489Z,1.48
2023-06-14T11:19:10.544Z,1.30
2023-06-14T11:21:43.523Z,1.23
2023-06-14T11:24:14.218Z,1.20
2023-06-14T11:26:43.057Z,1.30
2023-06-14T11:29:13.551Z,1.20
2023-06-14T11:31:51.013Z,0.82
2023-06-14T11:34:22.771Z,1.70
2023-06-14T11:36:52.615Z,1.00
2023-06-14T11:39:32.054Z,1.23
2023-06-14T11:42:04.602Z,1.25
2023-06-14T11:44:34.733Z,1.23
2023-06-14T11:47:06.903Z,1.15
2023-06-14T11:49:42.668Z,1.30
2023-06-14T11:52:13.602Z,1.20
2023-06-14T11:54:43.230Z,1.25
2023-06-14T11:57:13.073Z,1.20
2023-06-14T11:59:42.295Z,1.27
2023-06-14T12:02:11.548Z,1.20
2023-06-14T12:04:43.330Z,1.10
2023-06-14T12:07:17.729Z,1.38
2023-06-14T12:10:09.080Z,1.20
2023-06-14T12:12:39.627Z,1.08
2023-06-14T12:15:12.628Z,1.40
2023-06-14T12:17:44.953Z,1.02
2023-06-14T12:20:18.237Z,0.90
2023-06-14T12:22:58.872Z,1.02
2023-06-14T12:25:33.576Z,1.02
2023-06-14T12:28:07.307Z,1.02
2023-06-14T12:30:40.012Z,1.30
2023-06-14T12:33:13.052Z,1.80
2023-06-14T12:35:43.654Z,1.02
2023-06-14T12:38:13.222Z,1.20
2023-06-14T12:40:42.864Z,0.95
2023-06-14T12:43:11.196Z,1.10
2023-06-14T12:45:42.230Z,1.02
2023-06-14T12:48:11.374Z,1.30
2023-06-14T12:50:40.311Z,1.33
2023-06-14T12:53:08.594Z,1.10
2023-06-14T12:55:38.309Z,1.15
2023-06-14T12:58:06.494Z,1.27
2023-06-14T13:00:36.028Z,1.20
2023-06-14T13:03:04.549Z,0.90
2023-06-14T13:05:34.509Z,1.00
2023-06-14T13:08:02.994Z,1.08
2023-06-14T13:10:31.285Z,1.00
2023-06-14T13:13:01.905Z,1.10
2023-06-14T13:15:31.666Z,1.17
2023-06-14T13:18:00.241Z,1.55
2023-06-14T13:20:28.642Z,1.27
2023-06-14T13:22:56.924Z,1.20
2023-06-14T13:25:27.464Z,1.25
2023-06-14T13:27:55.520Z,1.30
2023-06-14T13:30:25.284Z,1.40
2023-06-14T13:32:53.947Z,1.10
2023-06-14T13:35:22.045Z,1.10
2023-06-14T13:37:50.157Z,1.10
2023-06-14T13:40:19.192Z,1.30
2023-06-14T13:42:49.073Z,1.30
2023-06-14T13:45:17.901Z,1.10
2023-06-14T13:47:49.664Z,1.80
2023-06-14T13:50:18.448Z,1.20
2023-06-14T13:52:46.491Z,1.15
2023-06-14T13:55:15.058Z,1.05
2023-06-14T13:57:43.954Z,1.27
2023-06-14T14:00:13.854Z,1.10
2023-06-14T14:02:43.961Z,1.27
2023-06-14T14:05:13.362Z,1.20
2023-06-14T14:07:41.281Z,1.10
2023-06-14T14:10:10.252Z,1.20
2023-06-14T14:12:41.571Z,1.08
2023-06-14T14:15:14.353Z,1.08
2023-06-14T14:17:44.191Z,1.08
2023-06-14T14:20:17.089Z,1.20
2023-06-14T14:22:48.053Z,1.00
2023-06-14T14:25:16.644Z,1.20
2023-06-14T14:27:44.981Z,1.17
2023-06-14T14:30:15.443Z,1.13
2023-06-14T14:32:44.658Z,1.00
2023-06-14T14:35:14.359Z,1.10
2023-06-14T14:37:42.951Z,1.23
2023-06-14T14:40:13.809Z,1.33
2023-06-14T14:42:42.975Z,1.20
2023-06-14T14:45:12.530Z,1.30
2023-06-14T14:47:41.311Z,1.10
2023-06-14T14:50:12.536Z,1.15
2023-06-14T14:52:50.239Z,1.00
2023-06-14T14:55:20.029Z,1.17
2023-06-14T14:57:51.497Z,1.65
2023-06-14T15:00:21.245Z,1.23
2023-06-14T15:02:52.986Z,1.40
2023-06-14T15:05:23.215Z,1.27
2023-06-14T15:07:52.489Z,1.17
2023-06-14T15:10:23.371Z,1.42
2023-06-14T15:12:53.281Z,1.38
2023-06-14T15:15:22.223Z,1.55
2023-06-14T15:17:50.134Z,1.20
2023-06-14T15:20:18.716Z,1.50
2023-06-14T15:22:49.141Z,1.30
2023-06-14T15:25:22.451Z,1.20
2023-06-14T15:27:52.711Z,1.23
2023-06-14T15:30:29.732Z,1.15
2023-06-14T15:33:00.570Z,1.17
2023-06-14T15:35:32.118Z,1.90
2023-06-14T15:38:00.042Z,1.23
2023-06-14T15:40:35.206Z,1.20
2023-06-14T15:43:04.688Z,1.00
2023-06-14T15:45:33.187Z,1.33
2023-06-14T15:48:02.613Z,1.20
2023-06-14T15:50:33.286Z,1.20
2023-06-14T15:53:01.818Z,1.35
2023-06-14T15:55:31.727Z,1.33
2023-06-14T15:58:05.919Z,1.67
2023-06-14T16:00:33.904Z,1.30
2023-06-14T16:03:03.943Z,1.10
2023-06-14T16:05:32.060Z,1.20
2023-06-14T16:08:02.675Z,2.05
2023-06-14T16:10:32.251Z,1.20
2023-06-14T16:13:03.074Z,1.20
2023-06-14T16:15:33.695Z,1.75
2023-06-14T16:18:03.125Z,1.30
2023-06-14T16:20:39.612Z,1.27
2023-06-14T16:23:22.488Z,1.30
2023-06-14T16:25:53.384Z,1.27
2023-06-14T16:28:22.860Z,1.30
2023-06-14T16:30:53.642Z,1.20
2023-06-14T16:33:23.475Z,1.05
2023-06-14T16:35:55.038Z,1.27
2023-06-14T16:38:23.436Z,1.65
2023-06-14T16:40:55.607Z,1.20
2023-06-14T16:43:23.478Z,1.08
2023-06-14T16:45:52.804Z,1.20
2023-06-14T16:48:23.478Z,1.40
2023-06-14T16:50:53.344Z,1.30
2023-06-14T16:53:22.881Z,1.30
2023-06-14T16:56:04.061Z,1.48
2023-06-14T16:58:33.537Z,1.40
2023-06-14T17:01:03.716Z,1.17
2023-06-14T17:03:33.715Z,1.30
2023-06-14T17:06:02.452Z,1.27
2023-06-14T17:08:33.243Z,1.38
2023-06-14T17:11:04.764Z,1.25
2023-06-14T17:13:32.927Z,1.17
2023-06-14T17:16:02.867Z,1.30
2023-06-14T17:18:43.711Z,1.30
2023-06-14T17:21:15.351Z,1.13
2023-06-14T17:23:44.864Z,1.23
2023-06-14T17:26:17.024Z,1.20
2023-06-14T17:28:47.246Z,1.08
2023-06-14T17:31:15.434Z,1.20
2023-06-14T17:33:44.460Z,1.30
2023-06-14T17:36:12.550Z,1.30
2023-06-14T17:38:43.386Z,1.10
2023-06-14T17:41:11.331Z,1.40
2023-06-14T17:43:43.534Z,1.30
2023-06-14T17:46:13.388Z,1.10
2023-06-14T17:48:41.276Z,1.02
2023-06-14T17:51:09.549Z,0.93
2023-06-14T17:53:43.242Z,1.00
2023-06-14T17:56:13.792Z,0.98
2023-06-14T17:58:44.684Z,1.30
2023-06-14T18:01:22.529Z,1.25
2023-06-14T18:03:54.175Z,1.30
2023-06-14T18:06:23.112Z,1.15
2023-06-14T18:08:51.457Z,1.00
2023-06-14T18:11:20.623Z,1.08
2023-06-14T18:13:54.111Z,1.02
2023-06-14T18:16:22.110Z,1.33
2023-06-14T18:18:55.307Z,1.15
2023-06-14T18:21:23.556Z,0.90
2023-06-14T18:23:55.559Z,1.17
2023-06-14T18:26:27.599Z,1.00
2023-06-14T18:29:02.253Z,1.10
2023-06-14T18:31:35.449Z,0.85
2023-06-14T18:34:03.368Z,0.93
2023-06-14T18:36:35.125Z,1.10
2023-06-14T18:39:03.828Z,1.05
2023-06-14T18:41:35.301Z,1.38
2023-06-14T18:44:04.723Z,1.20
2023-06-14T18:46:34.264Z,1.23
2023-06-14T18:49:03.944Z,1.40
2023-06-14T18:51:35.401Z,1.05
2023-06-14T18:54:03.558Z,1.38
2023-06-14T18:56:34.380Z,1.15
2023-06-14T18:59:05.541Z,1.00
2023-06-14T19:01:35.360Z,1.05
2023-06-14T19:04:04.159Z,0.90
2023-06-14T19:06:33.314Z,1.10
2023-06-14T19:09:01.256Z,1.10
2023-06-14T19:11:46.062Z,0.82
2023-06-14T19:14:14.119Z,1.00
2023-06-14T19:16:43.582Z,0.90
2023-06-14T19:19:14.598Z,1.10
2023-06-14T19:21:42.733Z,1.10
2023-06-14T19:24:16.640Z,0.95
2023-06-14T19:26:45.005Z,1.00
2023-06-14T19:29:12.943Z,0.90
2023-06-14T19:31:42.832Z,1.08
2023-06-14T19:34:12.442Z,1.40
2023-06-14T19:36:41.219Z,0.90
2023-06-14T19:39:09.235Z,1.02
2023-06-14T19:41:37.817Z,1.00
2023-06-14T19:44:09.528Z,1.00
2023-06-14T19:46:37.911Z,1.10
2023-06-14T19:49:06.053Z,0.88
2023-06-14T19:51:36.047Z,1.20
2023-06-14T19:54:04.112Z,1.00
2023-06-14T19:56:32.121Z,0.82
2023-06-14T19:59:00.996Z,1.33
2023-06-14T20:01:28.826Z,1.25
2023-06-14T20:03:56.671Z,1.10
2023-06-14T20:06:24.506Z,0.93
2023-06-14T20:08:53.736Z,1.20
2023-06-14T20:11:21.641Z,0.98
2023-06-14T20:13:49.565Z,1.15
2023-06-14T20:16:17.729Z,1.05
2023-06-14T20:18:46.152Z,1.02
2023-06-14T20:21:13.942Z,1.30
2023-06-14T20:23:41.893Z,1.10
2023-06-14T20:26:11.328Z,1.00
2023-06-14T20:28:39.499Z,1.15
2023-06-14T20:31:09.007Z,1.30
2023-06-14T20:33:37.777Z,1.27
2023-06-14T20:36:06.693Z,1.10
2023-06-14T20:38:35.020Z,1.08
2023-06-14T20:41:04.360Z,1.30
2023-06-14T20:43:34.295Z,1.30
2023-06-14T20:46:02.931Z,1.10
2023-06-14T20:48:34.298Z,1.20
2023-06-14T20:51:04.698Z,1.42
2023-06-14T20:53:33.161Z,1.05
2023-06-14T20:56:02.916Z,1.20
2023-06-14T20:58:31.082Z,1.00
2023-06-14T21:01:04.421Z,1.48
2023-06-14T21:03:34.315Z,1.10
2023-06-14T21:06:05.713Z,1.40
2023-06-14T21:08:33.631Z,1.27
2023-06-14T21:11:01.588Z,1.10
2023-06-14T21:13:29.536Z,1.30
2023-06-14T21:15:57.408Z,1.25
2023-06-14T21:18:26.838Z,1.40
2023-06-14T21:20:54.789Z,1.10
2023-06-14T21:23:22.929Z,1.05
2023-06-14T21:25:50.814Z,1.30
2023-06-14T21:28:18.674Z,1.20
2023-06-14T21:30:46.592Z,1.08
2023-06-14T21:33:14.438Z,1.30
2023-06-14T21:35:43.750Z,1.23
2023-06-14T21:38:13.036Z,1.35
2023-06-14T21:40:45.887Z,1.30
2023-06-14T21:43:13.764Z,1.30
2023-06-14T21:45:45.337Z,1.20
2023-06-14T21:48:13.613Z,1.20
2023-06-14T21:50:41.501Z,1.40
2023-06-14T21:53:10.744Z,1.13
2023-06-14T21:55:39.247Z,1.20
2023-06-14T21:58:11.725Z,1.50
2023-06-14T22:00:41.866Z,1.50
2023-06-14T22:03:12.071Z,1.15
2023-06-14T22:05:42.569Z,1.42
2023-06-14T22:08:14.347Z,1.58
2023-06-14T22:10:43.993Z,1.27
2023-06-14T22:13:14.968Z,1.20
2023-06-14T22:15:46.681Z,1.17
2023-06-14T22:18:14.775Z,1.50
2023-06-14T22:20:45.403Z,1.38
2023-06-14T22:23:15.769Z,1.52
2023-06-14T22:25:45.021Z,1.52
2023-06-14T22:28:14.040Z,1.50
2023-06-14T22:30:45.816Z,1.50
2023-06-14T22:33:14.254Z,1.80
2023-06-14T22:35:42.158Z,1.52
2023-06-14T22:38:10.570Z,1.50
2023-06-14T22:40:43.443Z,1.40
2023-06-14T22:43:13.760Z,1.17
2023-06-14T22:45:44.143Z,1.30
2023-06-14T22:48:12.668Z,1.42
2023-06-14T22:50:43.824Z,1.58
2023-06-14T22:53:13.626Z,1.35
2023-06-14T22:55:45.263Z,1.30
2023-06-14T22:58:18.453Z,1.40
2023-06-14T23:00:47.773Z,1.60
2023-06-14T23:03:15.649Z,1.40
2023-06-14T23:05:43.651Z,1.50
2023-06-14T23:08:13.844Z,1.40
2023-06-14T23:10:43.117Z,1.40
2023-06-14T23:13:11.279Z,1.17
2023-06-14T23:15:39.310Z,1.35
2023-06-14T23:18:12.428Z,1.55
2023-06-14T23:20:40.720Z,1.50
2023-06-14T23:23:13.047Z,1.45
2023-06-14T23:25:43.961Z,1.50
2023-06-14T23:28:17.998Z,1.25
2023-06-14T23:30:48.177Z,1.58
2023-06-14T23:33:16.764Z,1.40
2023-06-14T23:35:44.756Z,1.50
2023-06-14T23:38:14.502Z,1.70
2023-06-14T23:40:46.626Z,1.33
2023-06-14T23:43:15.340Z,1.63
2023-06-14T23:45:46.792Z,1.92
2023-06-14T23:48:14.784Z,1.70
2023-06-14T23:50:42.931Z,1.55
2023-06-14T23:53:14.039Z,1.85
2023-06-14T23:55:42.560Z,1.90
2023-06-14T23:58:18.605Z,1.90
